sensor_id;sensor_type;location;lat;lon;timestamp;pressure;altitude;pressure_sealevel;temperature;humidity
19112;BME280;9688;51.906;8.376;2024-03-25T00:02:42;99641.25;;;7.07;100.00
19112;BME280;9688;51.906;8.376;2024-03-25T00:05:27;99652.53;;;7.09;100.00
19112;BME280;9688;51.906;8.376;2024-03-25T00:08:13;99644.72;;;7.07;100.00
19112;BME280;9688;51.906;8.376;2024-03-25T00:10:58;99656.13;;;7.06;100.00
19112;BME280;9688;51.906;8.376;2024-03-25T00:13:43;99657.19;;;7.02;100.00
19112;BME280;9688;51.906;8.376;2024-03-25T00:16:27;99656.38;;;7.00;100.00
19112;BME280;9688;51.906;8.376;2024-03-25T00:19:13;99661.72;;;6.99;100.00
19112;BME280;9688;51.906;8.376;2024-03-25T00:21:57;99667.94;;;6.96;100.00
19112;BME280;9688;51.906;8.376;2024-03-25T00:24:44;99661.84;;;6.96;100.00
19112;BME280;9688;51.906;8.376;2024-03-25T00:27:28;99667.88;;;6.98;100.00
19112;BME280;9688;51.906;8.376;2024-03-25T00:30:14;99666.28;;;6.93;100.00
19112;BME280;9688;51.906;8.376;2024-03-25T00:32:58;99656.69;;;6.92;100.00
19112;BME280;9688;51.906;8.376;2024-03-25T00:35:44;99660.19;;;6.93;100.00
19112;BME280;9688;51.906;8.376;2024-03-25T00:38:29;99656.75;;;6.91;100.00
19112;BME280;9688;51.906;8.376;2024-03-25T00:41:16;99662.06;;;6.89;100.00
19112;BME280;9688;51.906;8.376;2024-03-25T00:44:01;99662.00;;;6.91;100.00
19112;BME280;9688;51.906;8.376;2024-03-25T00:46:46;99668.13;;;6.91;100.00
19112;BME280;9688;51.906;8.376;2024-03-25T00:49:31;99662.69;;;6.96;100.00
19112;BME280;9688;51.906;8.376;2024-03-25T00:52:16;99672.22;;;6.99;100.00
19112;BME280;9688;51.906;8.376;2024-03-25T00:55:00;99666.84;;;7.02;100.00
19112;BME280;9688;51.906;8.376;2024-03-25T00:57:47;99668.72;;;6.98;100.00
19112;BME280;9688;51.906;8.376;2024-03-25T01:00:32;99665.47;;;6.91;100.00
19112;BME280;9688;51.906;8.376;2024-03-25T01:03:17;99664.63;;;6.91;100.00
19112;BME280;9688;51.906;8.376;2024-03-25T01:06:01;99662.91;;;6.90;100.00
19112;BME280;9688;51.906;8.376;2024-03-25T01:08:49;99666.41;;;6.90;100.00
19112;BME280;9688;51.906;8.376;2024-03-25T01:11:33;99668.13;;;6.91;100.00
19112;BME280;9688;51.906;8.376;2024-03-25T01:14:19;99664.47;;;6.96;100.00
19112;BME280;9688;51.906;8.376;2024-03-25T01:17:03;99669.53;;;7.00;100.00
19112;BME280;9688;51.906;8.376;2024-03-25T01:19:49;99663.47;;;6.98;100.00
19112;BME280;9688;51.906;8.376;2024-03-25T01:22:34;99674.84;;;6.99;100.00
19112;BME280;9688;51.906;8.376;2024-03-25T01:25:18;99669.72;;;6.96;100.00
19112;BME280;9688;51.906;8.376;2024-03-25T01:28:03;99680.22;;;6.96;100.00
19112;BME280;9688;51.906;8.376;2024-03-25T01:30:49;99673.13;;;6.98;100.00
19112;BME280;9688;51.906;8.376;2024-03-25T01:33:34;99672.09;;;7.02;100.00
19112;BME280;9688;51.906;8.376;2024-03-25T01:36:19;99679.91;;;7.03;100.00
19112;BME280;9688;51.906;8.376;2024-03-25T01:39:04;99680.84;;;7.02;100.00
19112;BME280;9688;51.906;8.376;2024-03-25T01:41:49;99686.94;;;7.03;100.00
19112;BME280;9688;51.906;8.376;2024-03-25T01:44:34;99689.69;;;7.00;100.00
19112;BME280;9688;51.906;8.376;2024-03-25T01:47:19;99686.34;;;6.96;100.00
19112;BME280;9688;51.906;8.376;2024-03-25T01:50:06;99688.16;;;6.94;100.00
19112;BME280;9688;51.906;8.376;2024-03-25T01:52:51;99686.47;;;6.93;100.00
19112;BME280;9688;51.906;8.376;2024-03-25T01:55:37;99692.44;;;6.97;100.00
19112;BME280;9688;51.906;8.376;2024-03-25T01:58:22;99694.22;;;6.96;100.00
19112;BME280;9688;51.906;8.376;2024-03-25T02:01:09;99687.19;;;6.97;100.00
19112;BME280;9688;51.906;8.376;2024-03-25T02:03:59;99686.47;;;6.93;100.00
19112;BME280;9688;51.906;8.376;2024-03-25T02:06:44;99690.19;;;6.87;100.00
19112;BME280;9688;51.906;8.376;2024-03-25T02:09:29;99699.03;;;6.85;100.00
19112;BME280;9688;51.906;8.376;2024-03-25T02:12:15;99695.53;;;6.84;100.00
19112;BME280;9688;51.906;8.376;2024-03-25T02:14:59;99699.16;;;6.82;100.00
19112;BME280;9688;51.906;8.376;2024-03-25T02:17:45;99692.91;;;6.84;100.00
19112;BME280;9688;51.906;8.376;2024-03-25T02:20:30;99697.13;;;6.88;100.00
19112;BME280;9688;51.906;8.376;2024-03-25T02:23:16;99699.03;;;6.85;100.00
19112;BME280;9688;51.906;8.376;2024-03-25T02:26:02;99707.81;;;6.84;100.00
19112;BME280;9688;51.906;8.376;2024-03-25T02:28:47;99704.28;;;6.85;100.00
19112;BME280;9688;51.906;8.376;2024-03-25T02:31:32;99706.84;;;6.86;100.00
19112;BME280;9688;51.906;8.376;2024-03-25T02:34:17;99696.22;;;6.89;100.00
19112;BME280;9688;51.906;8.376;2024-03-25T02:37:02;99697.97;;;6.89;100.00
19112;BME280;9688;51.906;8.376;2024-03-25T02:39:47;99705.94;;;6.87;100.00
19112;BME280;9688;51.906;8.376;2024-03-25T02:42:33;99710.38;;;6.85;100.00
19112;BME280;9688;51.906;8.376;2024-03-25T02:45:18;99712.09;;;6.86;100.00
19112;BME280;9688;51.906;8.376;2024-03-25T02:48:03;99716.50;;;6.86;100.00
19112;BME280;9688;51.906;8.376;2024-03-25T02:50:49;99723.41;;;6.88;100.00
19112;BME280;9688;51.906;8.376;2024-03-25T02:53:35;99719.94;;;6.88;100.00
19112;BME280;9688;51.906;8.376;2024-03-25T02:56:19;99714.56;;;6.91;100.00
19112;BME280;9688;51.906;8.376;2024-03-25T02:59:05;99719.81;;;6.91;100.00
19112;BME280;9688;51.906;8.376;2024-03-25T03:01:50;99718.16;;;6.88;100.00
19112;BME280;9688;51.906;8.376;2024-03-25T03:04:35;99730.44;;;6.88;100.00
19112;BME280;9688;51.906;8.376;2024-03-25T03:07:19;99726.03;;;6.88;100.00
19112;BME280;9688;51.906;8.376;2024-03-25T03:10:05;99730.31;;;6.91;100.00
19112;BME280;9688;51.906;8.376;2024-03-25T03:12:50;99729.47;;;6.90;100.00
19112;BME280;9688;51.906;8.376;2024-03-25T03:15:36;99724.94;;;6.94;100.00
19112;BME280;9688;51.906;8.376;2024-03-25T03:18:20;99729.34;;;6.93;100.00
19112;BME280;9688;51.906;8.376;2024-03-25T03:21:05;99732.88;;;6.92;100.00
19112;BME280;9688;51.906;8.376;2024-03-25T03:23:50;99722.44;;;6.91;100.00
19112;BME280;9688;51.906;8.376;2024-03-25T03:26:35;99735.50;;;6.92;100.00
19112;BME280;9688;51.906;8.376;2024-03-25T03:29:19;99739.16;;;6.88;100.00
19112;BME280;9688;51.906;8.376;2024-03-25T03:32:06;99739.44;;;6.81;100.00
19112;BME280;9688;51.906;8.376;2024-03-25T03:34:50;99747.44;;;6.78;100.00
19112;BME280;9688;51.906;8.376;2024-03-25T03:37:35;99736.13;;;6.76;100.00
19112;BME280;9688;51.906;8.376;2024-03-25T03:40:19;99743.13;;;6.77;100.00
19112;BME280;9688;51.906;8.376;2024-03-25T03:43:04;99751.03;;;6.75;100.00
19112;BME280;9688;51.906;8.376;2024-03-25T03:45:49;99745.78;;;6.75;100.00
19112;BME280;9688;51.906;8.376;2024-03-25T03:48:36;99745.78;;;6.75;100.00
19112;BME280;9688;51.906;8.376;2024-03-25T03:51:21;99749.34;;;6.74;100.00
19112;BME280;9688;51.906;8.376;2024-03-25T03:54:07;99746.94;;;6.68;100.00
19112;BME280;9688;51.906;8.376;2024-03-25T03:56:51;99743.53;;;6.64;100.00
19112;BME280;9688;51.906;8.376;2024-03-25T03:59:36;99755.09;;;6.60;100.00
19112;BME280;9688;51.906;8.376;2024-03-25T04:02:20;99749.03;;;6.58;100.00
19112;BME280;9688;51.906;8.376;2024-03-25T04:05:07;99743.75;;;6.60;100.00
19112;BME280;9688;51.906;8.376;2024-03-25T04:07:52;99740.34;;;6.56;100.00
19112;BME280;9688;51.906;8.376;2024-03-25T04:10:37;99743.94;;;6.54;100.00
19112;BME280;9688;51.906;8.376;2024-03-25T04:13:22;99734.41;;;6.51;100.00
19112;BME280;9688;51.906;8.376;2024-03-25T04:16:07;99732.56;;;6.53;100.00
19112;BME280;9688;51.906;8.376;2024-03-25T04:18:51;99735.53;;;6.44;100.00
19112;BME280;9688;51.906;8.376;2024-03-25T04:21:37;99736.47;;;6.43;100.00
19112;BME280;9688;51.906;8.376;2024-03-25T04:24:23;99745.97;;;6.45;100.00
19112;BME280;9688;51.906;8.376;2024-03-25T04:27:07;99734.47;;;6.50;100.00
19112;BME280;9688;51.906;8.376;2024-03-25T04:29:52;99743.03;;;6.55;100.00
19112;BME280;9688;51.906;8.376;2024-03-25T04:32:38;99746.28;;;6.61;100.00
19112;BME280;9688;51.906;8.376;2024-03-25T04:35:23;99759.50;;;6.60;100.00
19112;BME280;9688;51.906;8.376;2024-03-25T04:38:09;99764.66;;;6.61;100.00
19112;BME280;9688;51.906;8.376;2024-03-25T04:41:09;99762.00;;;6.63;100.00
19112;BME280;9688;51.906;8.376;2024-03-25T04:43:53;99768.03;;;6.65;100.00
19112;BME280;9688;51.906;8.376;2024-03-25T04:46:38;99775.13;;;6.63;100.00
19112;BME280;9688;51.906;8.376;2024-03-25T04:49:22;99783.00;;;6.63;100.00
19112;BME280;9688;51.906;8.376;2024-03-25T04:52:07;99782.16;;;6.62;100.00
19112;BME280;9688;51.906;8.376;2024-03-25T04:54:53;99783.91;;;6.62;100.00
19112;BME280;9688;51.906;8.376;2024-03-25T04:57:37;99774.31;;;6.61;100.00
19112;BME280;9688;51.906;8.376;2024-03-25T05:00:22;99785.56;;;6.64;100.00
19112;BME280;9688;51.906;8.376;2024-03-25T05:03:07;99787.28;;;6.65;100.00
19112;BME280;9688;51.906;8.376;2024-03-25T05:05:51;99781.16;;;6.65;100.00
19112;BME280;9688;51.906;8.376;2024-03-25T05:08:36;99781.97;;;6.67;100.00
19112;BME280;9688;51.906;8.376;2024-03-25T05:11:22;99783.72;;;6.68;100.00
19112;BME280;9688;51.906;8.376;2024-03-25T05:14:06;99788.03;;;6.69;100.00
19112;BME280;9688;51.906;8.376;2024-03-25T05:16:58;99786.34;;;6.68;100.00
19112;BME280;9688;51.906;8.376;2024-03-25T05:19:42;99790.66;;;6.69;100.00
19112;BME280;9688;51.906;8.376;2024-03-25T05:22:27;99799.34;;;6.71;100.00
19112;BME280;9688;51.906;8.376;2024-03-25T05:28:59;99799.16;;;6.76;100.00
19112;BME280;9688;51.906;8.376;2024-03-25T05:31:57;99804.31;;;6.79;100.00
19112;BME280;9688;51.906;8.376;2024-03-25T05:34:42;99801.47;;;6.85;100.00
19112;BME280;9688;51.906;8.376;2024-03-25T05:37:27;99809.25;;;6.88;100.00
19112;BME280;9688;51.906;8.376;2024-03-25T05:40:12;99813.34;;;6.95;100.00
19112;BME280;9688;51.906;8.376;2024-03-25T05:42:56;99808.97;;;6.96;100.00
19112;BME280;9688;51.906;8.376;2024-03-25T05:46:07;99815.09;;;6.96;100.00
19112;BME280;9688;51.906;8.376;2024-03-25T05:48:51;99813.22;;;6.98;100.00
19112;BME280;9688;51.906;8.376;2024-03-25T05:51:36;99819.25;;;7.02;100.00
19112;BME280;9688;51.906;8.376;2024-03-25T05:54:46;99828.94;;;7.00;100.00
19112;BME280;9688;51.906;8.376;2024-03-25T06:05:43;99819.47;;;6.96;100.00
19112;BME280;9688;51.906;8.376;2024-03-25T06:08:27;99822.78;;;7.01;100.00
19112;BME280;9688;51.906;8.376;2024-03-25T06:11:12;99821.75;;;7.05;100.00
19112;BME280;9688;51.906;8.376;2024-03-25T06:13:57;99819.81;;;7.10;100.00
19112;BME280;9688;51.906;8.376;2024-03-25T06:16:41;99819.94;;;7.07;100.00
19112;BME280;9688;51.906;8.376;2024-03-25T06:19:26;99824.19;;;7.09;100.00
19112;BME280;9688;51.906;8.376;2024-03-25T06:22:12;99831.88;;;7.15;100.00
19112;BME280;9688;51.906;8.376;2024-03-25T06:24:56;99830.78;;;7.21;100.00
19112;BME280;9688;51.906;8.376;2024-03-25T06:27:41;99835.00;;;7.25;100.00
19112;BME280;9688;51.906;8.376;2024-03-25T06:30:25;99841.03;;;7.29;100.00
19112;BME280;9688;51.906;8.376;2024-03-25T06:33:28;99839.25;;;7.29;100.00
19112;BME280;9688;51.906;8.376;2024-03-25T06:36:31;99843.81;;;7.24;100.00
19112;BME280;9688;51.906;8.376;2024-03-25T06:39:17;99837.75;;;7.22;100.00
19112;BME280;9688;51.906;8.376;2024-03-25T06:42:02;99844.78;;;7.22;100.00
19112;BME280;9688;51.906;8.376;2024-03-25T06:44:46;99847.19;;;7.28;100.00
19112;BME280;9688;51.906;8.376;2024-03-25T06:47:31;99849.66;;;7.32;100.00
19112;BME280;9688;51.906;8.376;2024-03-25T06:50:15;99848.69;;;7.35;100.00
19112;BME280;9688;51.906;8.376;2024-03-25T06:53:00;99861.59;;;7.41;100.00
19112;BME280;9688;51.906;8.376;2024-03-25T06:55:52;99855.25;;;7.47;100.00
19112;BME280;9688;51.906;8.376;2024-03-25T06:58:36;99861.19;;;7.52;100.00
19112;BME280;9688;51.906;8.376;2024-03-25T07:01:21;99876.88;;;7.53;100.00
19112;BME280;9688;51.906;8.376;2024-03-25T07:04:05;99874.06;;;7.59;100.00
19112;BME280;9688;51.906;8.376;2024-03-25T07:06:50;99875.59;;;7.65;100.00
19112;BME280;9688;51.906;8.376;2024-03-25T07:09:35;99872.03;;;7.66;100.00
19112;BME280;9688;51.906;8.376;2024-03-25T07:12:21;99866.53;;;7.72;100.00
19112;BME280;9688;51.906;8.376;2024-03-25T07:15:06;99867.94;;;7.81;100.00
19112;BME280;9688;51.906;8.376;2024-03-25T07:17:50;99863.97;;;7.93;100.00
19112;BME280;9688;51.906;8.376;2024-03-25T07:20:35;99868.88;;;8.02;100.00
19112;BME280;9688;51.906;8.376;2024-03-25T07:23:20;99872.06;;;8.10;100.00
19112;BME280;9688;51.906;8.376;2024-03-25T07:26:04;99864.06;;;8.12;100.00
19112;BME280;9688;51.906;8.376;2024-03-25T07:28:51;99869.13;;;8.18;100.00
19112;BME280;9688;51.906;8.376;2024-03-25T07:31:38;99881.94;;;8.25;100.00
19112;BME280;9688;51.906;8.376;2024-03-25T07:34:23;99875.81;;;8.25;100.00
19112;BME280;9688;51.906;8.376;2024-03-25T07:37:07;99884.41;;;8.30;100.00
19112;BME280;9688;51.906;8.376;2024-03-25T07:39:52;99878.34;;;8.28;100.00
19112;BME280;9688;51.906;8.376;2024-03-25T07:42:36;99882.91;;;8.23;100.00
19112;BME280;9688;51.906;8.376;2024-03-25T07:45:22;99882.50;;;8.12;100.00
19112;BME280;9688;51.906;8.376;2024-03-25T07:48:07;99883.56;;;8.08;100.00
19112;BME280;9688;51.906;8.376;2024-03-25T07:50:52;99879.28;;;8.05;100.00
19112;BME280;9688;51.906;8.376;2024-03-25T07:53:36;99890.47;;;8.10;100.00
19112;BME280;9688;51.906;8.376;2024-03-25T07:56:21;99895.22;;;8.22;100.00
19112;BME280;9688;51.906;8.376;2024-03-25T07:59:06;99885.50;;;8.24;100.00
19112;BME280;9688;51.906;8.376;2024-03-25T08:01:51;99887.56;;;8.38;100.00
19112;BME280;9688;51.906;8.376;2024-03-25T08:04:36;99895.47;;;8.60;100.00
19112;BME280;9688;51.906;8.376;2024-03-25T08:07:20;99888.69;;;8.75;100.00
19112;BME280;9688;51.906;8.376;2024-03-25T08:10:06;99884.09;;;8.80;100.00
19112;BME280;9688;51.906;8.376;2024-03-25T08:12:50;99895.75;;;8.75;100.00
19112;BME280;9688;51.906;8.376;2024-03-25T08:15:35;99896.72;;;8.72;100.00
19112;BME280;9688;51.906;8.376;2024-03-25T08:18:21;99900.88;;;8.78;100.00
19112;BME280;9688;51.906;8.376;2024-03-25T08:21:05;99905.03;;;8.83;100.00
19112;BME280;9688;51.906;8.376;2024-03-25T08:23:50;99901.28;;;8.89;100.00
19112;BME280;9688;51.906;8.376;2024-03-25T08:26:35;99903.44;;;9.00;100.00
19112;BME280;9688;51.906;8.376;2024-03-25T08:29:20;99906.59;;;9.08;100.00
19112;BME280;9688;51.906;8.376;2024-03-25T08:32:05;99896.91;;;9.08;100.00
19112;BME280;9688;51.906;8.376;2024-03-25T08:34:51;99905.34;;;9.16;100.00
19112;BME280;9688;51.906;8.376;2024-03-25T08:37:35;99908.34;;;9.28;100.00
19112;BME280;9688;51.906;8.376;2024-03-25T08:40:20;99899.06;;;9.40;100.00
19112;BME280;9688;51.906;8.376;2024-03-25T08:43:04;99907.25;;;9.52;100.00
19112;BME280;9688;51.906;8.376;2024-03-25T08:45:49;99900.94;;;9.56;100.00
19112;BME280;9688;51.906;8.376;2024-03-25T08:48:34;99901.06;;;9.53;100.00
19112;BME280;9688;51.906;8.376;2024-03-25T08:51:20;99898.53;;;9.50;100.00
19112;BME280;9688;51.906;8.376;2024-03-25T08:54:05;99893.91;;;9.55;100.00
19112;BME280;9688;51.906;8.376;2024-03-25T08:56:49;99895.28;;;9.64;100.00
19112;BME280;9688;51.906;8.376;2024-03-25T08:59:34;99891.88;;;9.81;100.00
19112;BME280;9688;51.906;8.376;2024-03-25T09:02:21;99899.41;;;10.08;100.00
19112;BME280;9688;51.906;8.376;2024-03-25T09:05:06;99904.72;;;10.25;100.00
19112;BME280;9688;51.906;8.376;2024-03-25T09:07:52;99900.41;;;10.41;100.00
19112;BME280;9688;51.906;8.376;2024-03-25T09:10:37;99892.34;;;10.44;100.00
19112;BME280;9688;51.906;8.376;2024-03-25T09:13:40;99893.81;;;10.50;100.00
19112;BME280;9688;51.906;8.376;2024-03-25T09:16:24;99898.34;;;10.65;100.00
19112;BME280;9688;51.906;8.376;2024-03-25T09:19:09;99886.28;;;10.77;100.00
19112;BME280;9688;51.906;8.376;2024-03-25T09:21:53;99890.19;;;10.87;100.00
19112;BME280;9688;51.906;8.376;2024-03-25T09:24:39;99888.00;;;10.96;100.00
19112;BME280;9688;51.906;8.376;2024-03-25T09:27:23;99883.94;;;10.88;99.29
19112;BME280;9688;51.906;8.376;2024-03-25T09:30:08;99886.75;;;10.85;98.30
19112;BME280;9688;51.906;8.376;2024-03-25T09:32:53;99897.72;;;10.95;98.56
19112;BME280;9688;51.906;8.376;2024-03-25T09:35:37;99893.06;;;11.00;98.04
19112;BME280;9688;51.906;8.376;2024-03-25T09:38:22;99889.75;;;11.12;97.74
19112;BME280;9688;51.906;8.376;2024-03-25T09:41:09;99888.88;;;11.29;96.80
19112;BME280;9688;51.906;8.376;2024-03-25T09:43:54;99884.63;;;11.43;94.80
19112;BME280;9688;51.906;8.376;2024-03-25T09:46:39;99885.69;;;11.56;93.97
19112;BME280;9688;51.906;8.376;2024-03-25T09:49:25;99880.56;;;11.69;90.36
19112;BME280;9688;51.906;8.376;2024-03-25T09:52:11;99881.41;;;11.69;91.76
19112;BME280;9688;51.906;8.376;2024-03-25T09:54:55;99878.31;;;11.61;91.68
19112;BME280;9688;51.906;8.376;2024-03-25T09:57:42;99879.63;;;11.54;92.37
19112;BME280;9688;51.906;8.376;2024-03-25T10:00:52;99889.25;;;11.55;92.11
19112;BME280;9688;51.906;8.376;2024-03-25T10:03:37;99884.81;;;11.55;91.93
19112;BME280;9688;51.906;8.376;2024-03-25T10:06:21;99886.44;;;11.58;91.06
19112;BME280;9688;51.906;8.376;2024-03-25T10:09:06;99884.47;;;11.46;91.61
19112;BME280;9688;51.906;8.376;2024-03-25T10:11:51;99878.72;;;11.37;91.74
19112;BME280;9688;51.906;8.376;2024-03-25T10:14:39;99880.47;;;11.21;91.46
19112;BME280;9688;51.906;8.376;2024-03-25T10:17:24;99883.28;;;11.18;91.45
19112;BME280;9688;51.906;8.376;2024-03-25T10:20:13;99879.88;;;11.16;90.43
19112;BME280;9688;51.906;8.376;2024-03-25T10:22:58;99886.88;;;11.17;89.55
19112;BME280;9688;51.906;8.376;2024-03-25T10:25:43;99877.78;;;11.23;89.49
19112;BME280;9688;51.906;8.376;2024-03-25T10:28:28;99874.22;;;11.39;87.13
19112;BME280;9688;51.906;8.376;2024-03-25T10:31:17;99868.28;;;11.68;86.24
19112;BME280;9688;51.906;8.376;2024-03-25T10:34:03;99874.97;;;12.07;84.33
19112;BME280;9688;51.906;8.376;2024-03-25T10:36:47;99880.47;;;12.34;83.10
19112;BME280;9688;51.906;8.376;2024-03-25T10:39:33;99873.19;;;12.37;82.00
19112;BME280;9688;51.906;8.376;2024-03-25T10:42:23;99875.59;;;12.42;82.10
19112;BME280;9688;51.906;8.376;2024-03-25T10:45:09;99870.78;;;12.48;81.22
19112;BME280;9688;51.906;8.376;2024-03-25T10:47:57;99872.59;;;12.48;80.62
19112;BME280;9688;51.906;8.376;2024-03-25T10:50:43;99858.47;;;12.47;80.17
19112;BME280;9688;51.906;8.376;2024-03-25T10:53:28;99867.66;;;12.42;79.33
19112;BME280;9688;51.906;8.376;2024-03-25T10:56:14;99862.53;;;12.39;78.38
19112;BME280;9688;51.906;8.376;2024-03-25T10:58:59;99859.47;;;12.31;78.62
19112;BME280;9688;51.906;8.376;2024-03-25T11:01:44;99857.31;;;12.21;78.28
19112;BME280;9688;51.906;8.376;2024-03-25T11:04:31;99845.88;;;12.05;78.25
19112;BME280;9688;51.906;8.376;2024-03-25T11:07:16;99847.81;;;11.87;78.66
19112;BME280;9688;51.906;8.376;2024-03-25T11:10:04;99850.94;;;11.94;78.49
19112;BME280;9688;51.906;8.376;2024-03-25T11:12:50;99850.44;;;12.03;78.18
19112;BME280;9688;51.906;8.376;2024-03-25T11:15:36;99842.44;;;12.19;78.09
19112;BME280;9688;51.906;8.376;2024-03-25T11:18:23;99845.63;;;12.25;77.03
19112;BME280;9688;51.906;8.376;2024-03-25T11:21:11;99847.72;;;12.35;76.93
19112;BME280;9688;51.906;8.376;2024-03-25T11:24:06;99836.94;;;12.38;76.91
19112;BME280;9688;51.906;8.376;2024-03-25T11:26:51;99835.69;;;12.59;77.11
19112;BME280;9688;51.906;8.376;2024-03-25T11:29:36;99833.31;;;12.69;76.08
19112;BME280;9688;51.906;8.376;2024-03-25T11:32:21;99833.06;;;12.73;75.77
19112;BME280;9688;51.906;8.376;2024-03-25T11:35:06;99826.91;;;12.87;75.56
19112;BME280;9688;51.906;8.376;2024-03-25T11:37:52;99822.66;;;12.99;75.01
19112;BME280;9688;51.906;8.376;2024-03-25T11:40:37;99819.72;;;13.04;75.29
19112;BME280;9688;51.906;8.376;2024-03-25T11:43:22;99824.38;;;13.00;74.50
19112;BME280;9688;51.906;8.376;2024-03-25T11:46:06;99827.88;;;13.01;74.34
19112;BME280;9688;51.906;8.376;2024-03-25T11:48:51;99818.97;;;12.87;74.10
19112;BME280;9688;51.906;8.376;2024-03-25T11:51:35;99822.19;;;12.78;73.67
19112;BME280;9688;51.906;8.376;2024-03-25T11:54:21;99813.66;;;12.73;73.13
19112;BME280;9688;51.906;8.376;2024-03-25T11:57:07;99809.72;;;12.50;73.72
19112;BME280;9688;51.906;8.376;2024-03-25T11:59:53;99814.53;;;12.43;73.35
19112;BME280;9688;51.906;8.376;2024-03-25T12:02:39;99808.97;;;12.48;72.96
19112;BME280;9688;51.906;8.376;2024-03-25T12:05:27;99803.75;;;12.61;72.42
19112;BME280;9688;51.906;8.376;2024-03-25T12:08:12;99810.41;;;12.68;72.25
19112;BME280;9688;51.906;8.376;2024-03-25T12:10:59;99797.06;;;12.69;72.82
19112;BME280;9688;51.906;8.376;2024-03-25T12:14:02;99794.03;;;12.61;73.01
19112;BME280;9688;51.906;8.376;2024-03-25T12:16:47;99794.47;;;12.54;73.25
19112;BME280;9688;51.906;8.376;2024-03-25T12:19:35;99788.66;;;12.47;72.78
19112;BME280;9688;51.906;8.376;2024-03-25T12:22:20;99785.50;;;12.26;73.29
19112;BME280;9688;51.906;8.376;2024-03-25T12:25:05;99774.44;;;12.19;73.87
19112;BME280;9688;51.906;8.376;2024-03-25T12:27:51;99777.47;;;12.27;73.51
19112;BME280;9688;51.906;8.376;2024-03-25T12:30:49;99769.34;;;12.31;73.96
19112;BME280;9688;51.906;8.376;2024-03-25T12:33:40;99767.38;;;12.48;73.32
19112;BME280;9688;51.906;8.376;2024-03-25T12:36:24;99757.28;;;12.69;73.30
19112;BME280;9688;51.906;8.376;2024-03-25T12:39:15;99752.00;;;12.84;72.82
19112;BME280;9688;51.906;8.376;2024-03-25T12:42:04;99756.72;;;12.93;72.05
19112;BME280;9688;51.906;8.376;2024-03-25T12:44:51;99757.09;;;13.01;71.74
19112;BME280;9688;51.906;8.376;2024-03-25T12:47:36;99752.34;;;13.06;71.89
19112;BME280;9688;51.906;8.376;2024-03-25T12:50:20;99751.78;;;13.01;71.59
19112;BME280;9688;51.906;8.376;2024-03-25T12:53:05;99742.50;;;12.94;71.02
19112;BME280;9688;51.906;8.376;2024-03-25T12:55:50;99735.69;;;12.90;70.73
19112;BME280;9688;51.906;8.376;2024-03-25T12:58:35;99738.53;;;13.01;69.64
19112;BME280;9688;51.906;8.376;2024-03-25T13:01:20;99733.38;;;13.12;68.78
19112;BME280;9688;51.906;8.376;2024-03-25T13:04:05;99730.53;;;13.15;68.15
19112;BME280;9688;51.906;8.376;2024-03-25T13:06:50;99733.94;;;13.32;67.67
19112;BME280;9688;51.906;8.376;2024-03-25T13:09:34;99726.47;;;13.38;67.16
19112;BME280;9688;51.906;8.376;2024-03-25T13:12:19;99727.00;;;13.44;66.76
19112;BME280;9688;51.906;8.376;2024-03-25T13:15:11;99715.25;;;13.48;65.68
19112;BME280;9688;51.906;8.376;2024-03-25T13:17:58;99712.66;;;13.46;65.85
19112;BME280;9688;51.906;8.376;2024-03-25T13:20:43;99709.47;;;13.41;65.88
19112;BME280;9688;51.906;8.376;2024-03-25T13:23:28;99713.88;;;13.28;66.15
19112;BME280;9688;51.906;8.376;2024-03-25T13:26:12;99718.03;;;13.17;66.28
19112;BME280;9688;51.906;8.376;2024-03-25T13:28:57;99707.63;;;13.14;66.37
19112;BME280;9688;51.906;8.376;2024-03-25T13:31:42;99713.28;;;13.23;66.24
19112;BME280;9688;51.906;8.376;2024-03-25T13:34:28;99706.44;;;13.47;65.84
19112;BME280;9688;51.906;8.376;2024-03-25T13:37:13;99704.66;;;13.60;65.56
19112;BME280;9688;51.906;8.376;2024-03-25T13:39:58;99704.66;;;13.60;65.63
19112;BME280;9688;51.906;8.376;2024-03-25T13:42:42;99698.81;;;13.55;65.08
19112;BME280;9688;51.906;8.376;2024-03-25T13:45:27;99693.88;;;13.49;65.51
19112;BME280;9688;51.906;8.376;2024-03-25T13:48:12;99696.44;;;13.51;64.94
19112;BME280;9688;51.906;8.376;2024-03-25T13:50:58;99693.19;;;13.60;64.32
19112;BME280;9688;51.906;8.376;2024-03-25T13:53:42;99692.25;;;13.74;64.18
19112;BME280;9688;51.906;8.376;2024-03-25T13:56:30;99690.63;;;13.86;63.39
19112;BME280;9688;51.906;8.376;2024-03-25T13:59:15;99692.09;;;13.90;62.83
19112;BME280;9688;51.906;8.376;2024-03-25T14:01:59;99692.00;;;13.91;62.57
19112;BME280;9688;51.906;8.376;2024-03-25T14:04:44;99687.41;;;13.80;62.53
19112;BME280;9688;51.906;8.376;2024-03-25T14:07:30;99681.84;;;13.71;62.28
19112;BME280;9688;51.906;8.376;2024-03-25T14:10:15;99678.63;;;13.66;62.31
19112;BME280;9688;51.906;8.376;2024-03-25T14:13:00;99677.00;;;13.50;61.96
19112;BME280;9688;51.906;8.376;2024-03-25T14:15:45;99670.03;;;13.35;62.51
19112;BME280;9688;51.906;8.376;2024-03-25T14:18:29;99668.16;;;13.23;62.67
19112;BME280;9688;51.906;8.376;2024-03-25T14:21:14;99662.69;;;13.11;63.32
19112;BME280;9688;51.906;8.376;2024-03-25T14:24:01;99659.69;;;13.03;62.77
19112;BME280;9688;51.906;8.376;2024-03-25T14:26:47;99654.03;;;12.95;63.70
19112;BME280;9688;51.906;8.376;2024-03-25T14:29:31;99659.03;;;12.85;63.72
19112;BME280;9688;51.906;8.376;2024-03-25T14:32:18;99651.41;;;12.81;63.92
19112;BME280;9688;51.906;8.376;2024-03-25T14:35:03;99644.00;;;12.71;64.72
19112;BME280;9688;51.906;8.376;2024-03-25T14:37:48;99639.75;;;12.69;65.06
19112;BME280;9688;51.906;8.376;2024-03-25T14:40:39;99637.66;;;12.74;64.67
19112;BME280;9688;51.906;8.376;2024-03-25T14:43:25;99643.72;;;12.76;64.40
19112;BME280;9688;51.906;8.376;2024-03-25T14:46:10;99643.72;;;12.76;64.65
19112;BME280;9688;51.906;8.376;2024-03-25T14:48:54;99644.16;;;12.83;64.85
19112;BME280;9688;51.906;8.376;2024-03-25T14:51:39;99639.63;;;12.85;64.64
19112;BME280;9688;51.906;8.376;2024-03-25T14:54:32;99628.41;;;12.94;63.94
19112;BME280;9688;51.906;8.376;2024-03-25T14:57:19;99623.47;;;13.02;63.89
19112;BME280;9688;51.906;8.376;2024-03-25T15:00:04;99620.66;;;13.05;63.94
19112;BME280;9688;51.906;8.376;2024-03-25T15:02:49;99616.03;;;12.94;64.49